Time,TemperatureF,DewpointF,PressureIn,WindDirection,WindDirectionDegrees,WindSpeedMPH,WindSpeedGustMPH,Humidity,HourlyPrecipIn,Conditions,Clouds,dailyrainin,SoftwareType,DateUTC
2013-04-14 00:00:00,30.0,23.6,29.99,West,270,0.0,0.0,77,0.00,,,0.00,WUHU21023XXSP,2013-04-14 05:00:00,
2013-04-14 00:06:00,30.0,23.6,29.99,West,270,0.0,0.0,77,0.00,,,0.00,WUHU21023XXSP,2013-04-14 05:06:00,
2013-04-14 00:13:00,29.8,23.8,29.99,West,270,0.0,0.0,78,0.00,,,0.00,WUHU21023XXSP,2013-04-14 05:13:00,
2013-04-14 00:19:00,29.8,23.8,30.00,West,270,0.0,0.0,78,0.00,,,0.00,WUHU21023XXSP,2013-04-14 05:19:00,
2013-04-14 00:26:00,29.8,23.8,29.99,West,270,0.0,0.0,78,0.00,,,0.00,WUHU21023XXSP,2013-04-14 05:26:00,
2013-04-14 00:32:00,30.0,24.0,30.00,West,270,0.0,0.0,78,0.00,,,0.00,WUHU21023XXSP,2013-04-14 05:32:00,
2013-04-14 00:39:00,30.0,24.0,30.00,West,270,0.0,0.0,78,0.00,,,0.00,WUHU21023XXSP,2013-04-14 05:39:00,
2013-04-14 00:45:00,30.0,24.3,29.99,West,270,0.0,0.0,79,0.00,,,0.00,WUHU21023XXSP,2013-04-14 05:45:00,
2013-04-14 00:51:00,30.4,24.7,29.99,West,270,0.0,0.0,79,0.00,,,0.00,WUHU21023XXSP,2013-04-14 05:51:00,
2013-04-14 00:58:00,30.4,24.7,30.00,West,270,0.0,0.0,79,0.00,,,0.00,WUHU21023XXSP,2013-04-14 05:58:00,
2013-04-14 01:04:00,30.4,24.7,30.00,West,270,0.0,0.0,79,0.00,,,0.00,WUHU21023XXSP,2013-04-14 06:04:00,
2013-04-14 01:11:00,30.4,24.7,30.00,West,270,0.0,0.0,79,0.00,,,0.00,WUHU21023XXSP,2013-04-14 06:11:00,
2013-04-14 01:17:00,30.4,24.7,30.00,West,270,0.0,0.0,79,0.00,,,0.00,WUHU21023XXSP,2013-04-14 06:17:00,
2013-04-14 01:23:00,30.4,24.7,30.00,West,270,0.0,0.0,79,0.00,,,0.00,WUHU21023XXSP,2013-04-14 06:23:00,
2013-04-14 01:30:00,30.4,25.0,30.00,West,270,0.0,0.0,80,0.00,,,0.00,WUHU21023XXSP,2013-04-14 06:30:00,
2013-04-14 01:36:00,30.4,25.0,30.00,West,270,0.0,0.0,80,0.00,,,0.00,WUHU21023XXSP,2013-04-14 06:36:00,
2013-04-14 01:43:00,30.4,25.0,30.00,West,270,0.0,0.0,80,0.00,,,0.00,WUHU21023XXSP,2013-04-14 06:43:00,
2013-04-14 01:49:00,30.4,25.0,29.99,West,270,0.0,0.0,80,0.00,,,0.00,WUHU21023XXSP,2013-04-14 06:49:00,
2013-04-14 01:56:00,30.4,25.0,29.99,West,270,0.0,0.0,80,0.00,,,0.00,WUHU21023XXSP,2013-04-14 06:56:00,
2013-04-14 02:02:00,30.4,25.3,30.00,West,270,0.0,0.0,81,0.00,,,0.00,WUHU21023XXSP,2013-04-14 07:02:00,
2013-04-14 02:08:00,30.4,25.3,29.98,West,270,0.0,0.0,81,0.00,,,0.00,WUHU21023XXSP,2013-04-14 07:08:00,
2013-04-14 02:15:00,30.4,25.3,29.98,West,270,0.0,0.0,81,0.00,,,0.00,WUHU21023XXSP,2013-04-14 07:15:00,
2013-04-14 02:21:00,30.6,25.4,29.99,West,270,0.0,0.0,81,0.00,,,0.00,WUHU21023XXSP,2013-04-14 07:21:00,
2013-04-14 02:28:00,30.6,25.4,29.99,West,270,0.0,0.0,81,0.00,,,0.00,WUHU21023XXSP,2013-04-14 07:28:00,
2013-04-14 02:34:00,30.7,25.9,29.99,West,270,0.0,0.0,82,0.00,,,0.00,WUHU21023XXSP,2013-04-14 07:34:00,
2013-04-14 02:41:00,30.7,25.9,29.99,West,270,0.0,0.0,82,0.00,,,0.00,WUHU21023XXSP,2013-04-14 07:41:00,
2013-04-14 02:47:00,30.7,25.9,29.99,West,270,0.0,0.0,82,0.00,,,0.00,WUHU21023XXSP,2013-04-14 07:47:00,
2013-04-14 02:53:00,30.9,26.1,29.99,West,270,0.0,0.0,82,0.00,,,0.00,WUHU21023XXSP,2013-04-14 07:53:00,
2013-04-14 03:00:00,31.1,26.3,29.99,West,270,0.0,0.0,82,0.00,,,0.00,WUHU21023XXSP,2013-04-14 08:00:00,
2013-04-14 03:06:00,31.1,26.3,30.00,West,270,0.0,0.0,82,0.00,,,0.00,WUHU21023XXSP,2013-04-14 08:06:00,
2013-04-14 03:13:00,31.1,26.3,30.00,West,270,0.0,0.0,82,0.00,,,0.00,WUHU21023XXSP,2013-04-14 08:13:00,
2013-04-14 03:19:00,31.3,26.5,30.01,West,270,0.0,0.0,82,0.00,,,0.00,WUHU21023XXSP,2013-04-14 08:19:00,
2013-04-14 03:26:00,31.3,26.5,30.01,West,270,0.0,0.0,82,0.00,,,0.00,WUHU21023XXSP,2013-04-14 08:26:00,
2013-04-14 03:32:00,31.3,26.7,30.00,SE,135,0.0,0.0,83,0.00,,,0.00,WUHU21023XXSP,2013-04-14 08:32:00,
2013-04-14 03:38:00,31.6,27.1,30.01,SSE,157,0.0,0.0,83,0.00,,,0.00,WUHU21023XXSP,2013-04-14 08:38:00,
2013-04-14 03:45:00,31.6,27.1,30.01,SE,135,0.0,0.0,83,0.00,,,0.00,WUHU21023XXSP,2013-04-14 08:45:00,
2013-04-14 03:51:00,31.8,27.3,30.00,SE,135,0.0,0.0,83,0.00,,,0.00,WUHU21023XXSP,2013-04-14 08:51:00,
2013-04-14 03:58:00,31.8,27.3,30.00,SE,135,0.0,0.0,83,0.00,,,0.00,WUHU21023XXSP,2013-04-14 08:58:00,
2013-04-14 04:04:00,32.2,27.6,30.00,SE,135,0.0,0.0,83,0.00,,,0.00,WUHU21023XXSP,2013-04-14 09:04:00,
2013-04-14 04:11:00,32.2,27.6,30.00,SE,135,0.0,0.0,83,0.00,,,0.00,WUHU21023XXSP,2013-04-14 09:11:00,
2013-04-14 04:17:00,32.4,27.8,30.00,SE,135,0.0,0.0,83,0.00,,,0.00,WUHU21023XXSP,2013-04-14 09:17:00,
2013-04-14 04:23:00,32.4,27.8,30.00,SE,135,0.0,0.0,83,0.00,,,0.00,WUHU21023XXSP,2013-04-14 09:23:00,
2013-04-14 04:30:00,32.5,27.9,30.01,SE,135,0.0,0.0,83,0.00,,,0.00,WUHU21023XXSP,2013-04-14 09:30:00,
2013-04-14 04:36:00,32.5,27.9,30.01,SE,135,0.0,0.0,83,0.00,,,0.00,WUHU21023XXSP,2013-04-14 09:36:00,
2013-04-14 04:43:00,32.7,28.1,30.01,SE,135,0.0,0.0,83,0.00,,,0.00,WUHU21023XXSP,2013-04-14 09:43:00,
2013-04-14 04:49:00,32.7,28.1,30.02,SE,135,0.0,0.0,83,0.00,,,0.00,WUHU21023XXSP,2013-04-14 09:49:00,
2013-04-14 04:56:00,32.7,28.1,30.01,SE,135,0.0,0.0,83,0.00,,,0.00,WUHU21023XXSP,2013-04-14 09:56:00,
2013-04-14 05:02:00,32.9,28.0,30.01,SE,135,0.0,0.0,82,0.00,,,0.00,WUHU21023XXSP,2013-04-14 10:02:00,
2013-04-14 05:08:00,32.9,28.0,30.01,SE,135,0.0,0.0,82,0.00,,,0.00,WUHU21023XXSP,2013-04-14 10:08:00,
2013-04-14 05:15:00,32.9,28.0,30.00,SE,135,0.0,1.0,82,0.00,,,0.00,WUHU21023XXSP,2013-04-14 10:15:00,
2013-04-14 05:22:00,32.7,27.8,30.00,ESE,112,0.0,0.0,82,0.00,,,0.00,WUHU21023XXSP,2013-04-14 10:22:00,
2013-04-14 05:28:00,32.7,27.8,30.00,ESE,112,0.0,0.0,82,0.00,,,0.00,WUHU21023XXSP,2013-04-14 10:28:00,
2013-04-14 05:34:00,32.7,27.8,30.01,ENE,67,0.0,0.0,82,0.00,,,0.00,WUHU21023XXSP,2013-04-14 10:34:00,
2013-04-14 05:41:00,32.5,27.7,30.00,East,90,0.0,0.0,82,0.00,,,0.00,WUHU21023XXSP,2013-04-14 10:41:00,
2013-04-14 05:47:00,32.2,27.6,30.00,ENE,67,0.0,0.0,83,0.00,,,0.00,WUHU21023XXSP,2013-04-14 10:47:00,
2013-04-14 05:53:00,32.2,27.6,30.00,East,90,0.0,0.0,83,0.00,,,0.00,WUHU21023XXSP,2013-04-14 10:53:00,
2013-04-14 06:00:00,31.8,27.3,30.00,ESE,112,0.0,0.0,83,0.00,,,0.00,WUHU21023XXSP,2013-04-14 11:00:00,
2013-04-14 06:06:00,31.8,27.3,30.01,ENE,67,0.0,0.0,83,0.00,,,0.00,WUHU21023XXSP,2013-04-14 11:06:00,
2013-04-14 06:13:00,31.6,27.4,30.01,ENE,67,0.0,0.0,84,0.00,,,0.00,WUHU21023XXSP,2013-04-14 11:13:00,
2013-04-14 06:19:00,31.6,27.4,30.01,ESE,112,0.0,0.0,84,0.00,,,0.00,WUHU21023XXSP,2013-04-14 11:19:00,
2013-04-14 06:26:00,31.6,27.4,30.00,NE,45,0.0,0.0,84,0.00,,,0.00,WUHU21023XXSP,2013-04-14 11:26:00,
2013-04-14 06:32:00,31.6,27.4,30.01,SE,135,0.0,0.0,84,0.00,,,0.00,WUHU21023XXSP,2013-04-14 11:32:00,
2013-04-14 06:38:00,31.6,27.7,30.00,ENE,67,0.0,0.0,85,0.00,,,0.00,WUHU21023XXSP,2013-04-14 11:38:00,
2013-04-14 06:45:00,31.5,27.5,30.00,NE,45,0.0,0.0,85,0.00,,,0.00,WUHU21023XXSP,2013-04-14 11:45:00,
2013-04-14 06:51:00,31.3,27.3,30.00,ENE,67,0.0,0.0,85,0.00,,,0.00,WUHU21023XXSP,2013-04-14 11:51:00,
2013-04-14 06:58:00,31.3,27.3,30.00,ESE,112,0.0,0.0,85,0.00,,,0.00,WUHU21023XXSP,2013-04-14 11:58:00,
2013-04-14 07:04:00,31.5,27.8,30.00,ENE,67,0.0,0.0,86,0.00,,,0.00,WUHU21023XXSP,2013-04-14 12:04:00,
2013-04-14 07:10:00,31.6,28.0,29.98,ENE,67,0.0,0.0,86,0.00,,,0.00,WUHU21023XXSP,2013-04-14 12:10:00,
2013-04-14 07:17:00,31.6,28.0,29.98,ENE,67,0.0,0.0,86,0.00,,,0.00,WUHU21023XXSP,2013-04-14 12:17:00,
2013-04-14 07:23:00,31.6,28.0,29.98,ENE,67,0.0,0.0,86,0.00,,,0.00,WUHU21023XXSP,2013-04-14 12:23:00,
2013-04-14 07:30:00,31.6,28.0,29.98,ENE,67,0.0,0.0,86,0.00,,,0.00,WUHU21023XXSP,2013-04-14 12:30:00,
2013-04-14 07:36:00,31.6,28.0,29.98,ENE,67,0.0,0.0,86,0.00,,,0.00,WUHU21023XXSP,2013-04-14 12:36:00,
2013-04-14 07:43:00,31.6,28.0,29.98,NE,45,0.0,0.0,86,0.00,,,0.00,WUHU21023XXSP,2013-04-14 12:43:00,
2013-04-14 07:49:00,31.6,28.0,29.98,ESE,112,0.0,0.0,86,0.00,,,0.00,WUHU21023XXSP,2013-04-14 12:49:00,
2013-04-14 07:56:00,31.6,28.0,29.98,ENE,67,0.0,0.0,86,0.00,,,0.00,WUHU21023XXSP,2013-04-14 12:56:00,
2013-04-14 08:02:00,31.8,28.1,29.97,NE,45,0.0,0.0,86,0.00,,,0.00,WUHU21023XXSP,2013-04-14 13:02:00,
2013-04-14 08:08:00,31.8,28.1,29.96,NE,45,0.0,0.0,86,0.00,,,0.00,WUHU21023XXSP,2013-04-14 13:08:00,
2013-04-14 08:15:00,32.0,28.3,29.96,ENE,67,0.0,0.0,86,0.00,,,0.00,WUHU21023XXSP,2013-04-14 13:15:00,
2013-04-14 08:21:00,32.2,28.5,29.95,East,90,0.0,0.0,86,0.00,,,0.00,WUHU21023XXSP,2013-04-14 13:21:00,
2013-04-14 08:28:00,32.4,28.9,29.96,ESE,112,0.0,0.0,87,0.00,,,0.00,WUHU21023XXSP,2013-04-14 13:28:00,
2013-04-14 08:34:00,32.4,28.9,29.96,East,90,0.0,0.0,87,0.00,,,0.00,WUHU21023XXSP,2013-04-14 13:34:00,
2013-04-14 08:41:00,32.5,29.1,29.96,ENE,67,0.0,0.0,87,0.00,,,0.00,WUHU21023XXSP,2013-04-14 13:41:00,
2013-04-14 08:47:00,32.5,29.1,29.96,East,90,0.0,0.0,87,0.00,,,0.00,WUHU21023XXSP,2013-04-14 13:47:00,
2013-04-14 08:53:00,32.5,29.1,29.97,SE,135,0.0,0.0,87,0.00,,,0.00,WUHU21023XXSP,2013-04-14 13:53:00,
2013-04-14 09:00:00,32.7,29.3,29.95,ESE,112,0.0,0.0,87,0.00,,,0.00,WUHU21023XXSP,2013-04-14 14:00:00,
2013-04-14 09:06:00,32.7,29.3,29.96,SE,135,0.0,0.0,87,0.00,,,0.00,WUHU21023XXSP,2013-04-14 14:06:00,
2013-04-14 09:13:00,32.7,29.3,29.96,ENE,67,0.0,0.0,87,0.00,,,0.00,WUHU21023XXSP,2013-04-14 14:13:00,
2013-04-14 09:19:00,32.7,29.3,29.96,ENE,67,0.0,0.0,87,0.00,,,0.00,WUHU21023XXSP,2013-04-14 14:19:00,
2013-04-14 09:26:00,32.9,29.4,29.97,ESE,112,0.0,0.0,87,0.00,,,0.00,WUHU21023XXSP,2013-04-14 14:26:00,
2013-04-14 09:32:00,33.1,29.6,29.97,ESE,112,0.0,0.0,87,0.00,,,0.00,WUHU21023XXSP,2013-04-14 14:32:00,
2013-04-14 09:39:00,33.3,29.8,29.97,ENE,67,0.0,0.0,87,0.00,,,0.00,WUHU21023XXSP,2013-04-14 14:39:00,
2013-04-14 09:45:00,33.3,29.8,29.98,ENE,67,3.0,6.0,87,0.00,,,0.00,WUHU21023XXSP,2013-04-14 14:45:00,
2013-04-14 09:51:00,33.4,29.9,29.98,ESE,112,12.0,12.0,87,0.00,,,0.00,WUHU21023XXSP,2013-04-14 14:51:00,
2013-04-14 09:58:00,33.6,30.1,29.98,SSE,157,7.0,12.0,87,0.00,,,0.00,WUHU21023XXSP,2013-04-14 14:58:00,
2013-04-14 10:04:00,33.6,30.1,29.97,ESE,112,0.0,7.0,87,0.00,,,0.00,WUHU21023XXSP,2013-04-14 15:04:00,
2013-04-14 10:11:00,33.6,30.1,29.97,ENE,67,0.0,5.0,87,0.00,,,0.00,WUHU21023XXSP,2013-04-14 15:11:00,
2013-04-14 10:17:00,33.8,30.2,29.97,SSE,157,0.0,5.0,87,0.00,,,0.00,WUHU21023XXSP,2013-04-14 15:17:00,
2013-04-14 10:24:00,34.2,30.6,29.97,ESE,112,0.0,4.0,87,0.00,,,0.00,WUHU21023XXSP,2013-04-14 15:24:00,
2013-04-14 10:30:00,34.3,30.8,29.97,East,90,0.0,0.0,87,0.00,,,0.00,WUHU21023XXSP,2013-04-14 15:30:00,
2013-04-14 10:36:00,34.3,30.8,29.97,ENE,67,0.0,0.0,87,0.00,,,0.00,WUHU21023XXSP,2013-04-14 15:36:00,
2013-04-14 10:43:00,34.7,31.1,29.96,NE,45,0.0,0.0,87,0.00,,,0.00,WUHU21023XXSP,2013-04-14 15:43:00,
2013-04-14 10:49:00,34.9,31.3,29.95,ENE,67,12.0,12.0,87,0.00,,,0.00,WUHU21023XXSP,2013-04-14 15:49:00,
2013-04-14 10:56:00,35.2,31.7,29.95,ENE,67,0.0,12.0,87,0.00,,,0.00,WUHU21023XXSP,2013-04-14 15:56:00,
2013-04-14 11:02:00,35.8,32.2,29.94,ENE,67,7.0,7.0,87,0.00,,,0.00,WUHU21023XXSP,2013-04-14 16:02:00,
2013-04-14 11:09:00,36.1,32.6,29.94,ENE,67,0.0,7.0,87,0.00,,,0.00,WUHU21023XXSP,2013-04-14 16:09:00,
2013-04-14 11:15:00,36.3,32.8,29.93,East,90,9.0,9.0,87,0.00,,,0.00,WUHU21023XXSP,2013-04-14 16:15:00,
2013-04-14 11:21:00,36.9,33.0,29.93,SE,135,4.0,9.0,86,0.00,,,0.00,WUHU21023XXSP,2013-04-14 16:21:00,
2013-04-14 11:28:00,37.2,33.4,29.93,ESE,112,0.0,4.0,86,0.00,,,0.00,WUHU21023XXSP,2013-04-14 16:28:00,
2013-04-14 11:34:00,37.9,34.1,29.93,SE,135,0.0,4.0,86,0.00,,,0.00,WUHU21023XXSP,2013-04-14 16:34:00,
2013-04-14 11:41:00,38.8,35.0,29.91,SE,135,4.0,7.0,86,0.00,,,0.00,WUHU21023XXSP,2013-04-14 16:41:00,
2013-04-14 11:47:00,39.7,35.2,29.91,ESE,112,8.0,8.0,85,0.00,,,0.00,WUHU21023XXSP,2013-04-14 16:47:00,
2013-04-14 11:53:00,39.9,35.1,29.90,SE,135,12.0,12.0,83,0.00,,,0.00,WUHU21023XXSP,2013-04-14 16:53:00,
2013-04-14 12:00:00,40.1,34.7,29.90,ESE,112,2.0,12.0,81,0.00,,,0.00,WUHU21023XXSP,2013-04-14 17:00:00,
2013-04-14 12:06:00,40.1,34.7,29.89,SE,135,7.0,8.0,81,0.00,,,0.00,WUHU21023XXSP,2013-04-14 17:06:00,
2013-04-14 12:13:00,40.1,34.7,29.89,NE,45,0.0,7.0,81,0.00,,,0.00,WUHU21023XXSP,2013-04-14 17:13:00,
2013-04-14 12:19:00,40.6,34.9,29.88,SE,135,8.0,8.0,80,0.00,,,0.00,WUHU21023XXSP,2013-04-14 17:19:00,
2013-04-14 12:26:00,41.0,35.2,29.87,NE,45,12.0,12.0,80,0.00,,,0.00,WUHU21023XXSP,2013-04-14 17:26:00,
2013-04-14 12:32:00,41.7,35.6,29.87,ENE,67,9.0,12.0,79,0.00,,,0.00,WUHU21023XXSP,2013-04-14 17:32:00,
2013-04-14 12:38:00,42.1,36.0,29.86,ENE,67,8.0,9.0,79,0.00,,,0.00,WUHU21023XXSP,2013-04-14 17:38:00,
2013-04-14 12:45:00,42.6,36.2,29.86,ESE,112,0.0,8.0,78,0.00,,,0.00,WUHU21023XXSP,2013-04-14 17:45:00,
2013-04-14 12:51:00,43.0,36.6,29.86,ESE,112,2.0,6.0,78,0.00,,,0.00,WUHU21023XXSP,2013-04-14 17:51:00,
2013-04-14 12:58:00,43.3,36.9,29.85,NE,45,5.0,7.0,78,0.00,,,0.00,WUHU21023XXSP,2013-04-14 17:58:00,
2013-04-14 13:04:00,43.9,37.1,29.85,SSE,157,6.0,12.0,77,0.00,,,0.00,WUHU21023XXSP,2013-04-14 18:04:00,
2013-04-14 13:11:00,44.6,37.1,29.85,SE,135,5.0,12.0,75,0.00,,,0.00,WUHU21023XXSP,2013-04-14 18:11:00,
2013-04-14 13:17:00,45.0,37.5,29.85,NNE,22,4.0,10.0,75,0.00,,,0.00,WUHU21023XXSP,2013-04-14 18:17:00,
2013-04-14 13:23:00,45.7,38.2,29.84,ESE,112,0.0,9.0,75,0.00,,,0.00,WUHU21023XXSP,2013-04-14 18:23:00,
2013-04-14 13:30:00,46.0,37.9,29.84,NE,45,7.0,7.0,73,0.00,,,0.00,WUHU21023XXSP,2013-04-14 18:30:00,
2013-04-14 13:36:00,46.2,37.7,29.84,SE,135,6.0,8.0,72,0.00,,,0.00,WUHU21023XXSP,2013-04-14 18:36:00,
2013-04-14 13:43:00,46.2,37.4,29.84,ENE,67,0.0,8.0,71,0.00,,,0.00,WUHU21023XXSP,2013-04-14 18:43:00,
2013-04-14 13:49:00,46.6,37.7,29.84,NE,45,7.0,7.0,71,0.00,,,0.00,WUHU21023XXSP,2013-04-14 18:49:00,
2013-04-14 13:56:00,46.2,37.0,29.84,NE,45,2.0,7.0,70,0.00,,,0.00,WUHU21023XXSP,2013-04-14 18:56:00,
2013-04-14 14:02:00,46.2,37.4,29.83,SE,135,4.0,5.0,71,0.00,,,0.00,WUHU21023XXSP,2013-04-14 19:02:00,
2013-04-14 14:08:00,46.2,37.4,29.83,SE,135,0.0,7.0,71,0.00,,,0.00,WUHU21023XXSP,2013-04-14 19:08:00,
2013-04-14 14:15:00,46.2,37.4,29.82,SE,135,9.0,9.0,71,0.00,,,0.00,WUHU21023XXSP,2013-04-14 19:15:00,
2013-04-14 14:21:00,46.6,37.7,29.83,East,90,0.0,13.0,71,0.00,,,0.00,WUHU21023XXSP,2013-04-14 19:21:00,
2013-04-14 14:28:00,46.9,37.7,29.82,ENE,67,10.0,13.0,70,0.00,,,0.00,WUHU21023XXSP,2013-04-14 19:28:00,
2013-04-14 14:34:00,46.9,37.7,29.82,NE,45,8.0,13.0,70,0.00,,,0.00,WUHU21023XXSP,2013-04-14 19:34:00,
2013-04-14 14:40:00,47.1,38.2,29.82,ENE,67,0.0,8.0,71,0.00,,,0.00,WUHU21023XXSP,2013-04-14 19:40:00,
2013-04-14 14:47:00,47.8,38.5,29.82,ENE,67,10.0,10.0,70,0.00,,,0.00,WUHU21023XXSP,2013-04-14 19:47:00,
2013-04-14 14:53:00,48.0,38.7,29.82,NE,45,5.0,13.0,70,0.00,,,0.00,WUHU21023XXSP,2013-04-14 19:53:00,
2013-04-14 15:00:00,48.4,39.0,29.81,NE,45,6.0,13.0,70,0.00,,,0.00,WUHU21023XXSP,2013-04-14 20:00:00,
2013-04-14 15:07:00,48.9,38.8,29.81,ENE,67,3.0,7.0,68,0.00,,,0.00,WUHU21023XXSP,2013-04-14 20:07:00,
2013-04-14 15:13:00,48.9,38.8,29.81,ENE,67,6.0,6.0,68,0.00,,,0.00,WUHU21023XXSP,2013-04-14 20:13:00,
2013-04-14 15:19:00,48.6,38.4,29.80,ENE,67,15.0,15.0,68,0.00,,,0.00,WUHU21023XXSP,2013-04-14 20:19:00,
2013-04-14 15:25:00,48.6,38.4,29.80,East,90,2.0,15.0,68,0.00,,,0.00,WUHU21023XXSP,2013-04-14 20:25:00,
2013-04-14 15:32:00,48.0,37.5,29.79,ESE,112,5.0,11.0,67,0.00,,,0.00,WUHU21023XXSP,2013-04-14 20:32:00,
2013-04-14 15:38:00,48.0,37.9,29.78,ENE,67,8.0,8.0,68,0.00,,,0.00,WUHU21023XXSP,2013-04-14 20:38:00,
2013-04-14 15:45:00,47.7,38.0,29.78,NE,45,0.0,12.0,69,0.00,,,0.00,WUHU21023XXSP,2013-04-14 20:45:00,
2013-04-14 15:51:00,47.3,38.0,29.77,NNE,22,0.0,17.0,70,0.00,,,0.00,WUHU21023XXSP,2013-04-14 20:51:00,
2013-04-14 15:58:00,47.1,37.9,29.77,ENE,67,0.0,17.0,70,0.00,,,0.00,WUHU21023XXSP,2013-04-14 20:58:00,
2013-04-14 16:04:00,47.1,37.9,29.77,South,180,0.0,11.0,70,0.00,,,0.00,WUHU21023XXSP,2013-04-14 21:04:00,
2013-04-14 16:10:00,47.3,38.0,29.77,ESE,112,0.0,11.0,70,0.00,,,0.00,WUHU21023XXSP,2013-04-14 21:10:00,
2013-04-14 16:17:00,47.1,37.9,29.76,NE,45,2.0,7.0,70,0.00,,,0.00,WUHU21023XXSP,2013-04-14 21:17:00,
2013-04-14 16:23:00,46.8,37.5,29.76,NE,45,7.0,20.0,70,0.00,,,0.00,WUHU21023XXSP,2013-04-14 21:23:00,
2013-04-14 16:30:00,46.2,37.4,29.76,ENE,67,2.0,20.0,71,0.00,,,0.00,WUHU21023XXSP,2013-04-14 21:30:00,
2013-04-14 16:36:00,45.5,36.7,29.75,NE,45,3.0,5.0,71,0.00,,,0.00,WUHU21023XXSP,2013-04-14 21:36:00,
2013-04-14 16:43:00,45.0,36.5,29.76,ENE,67,12.0,12.0,72,0.00,,,0.00,WUHU21023XXSP,2013-04-14 21:43:00,
2013-04-14 16:49:00,44.4,36.3,29.75,NNE,22,7.0,12.0,73,0.00,,,0.00,WUHU21023XXSP,2013-04-14 21:49:00,
2013-04-14 16:56:00,44.1,36.3,29.75,ENE,67,4.0,7.0,74,0.00,,,0.00,WUHU21023XXSP,2013-04-14 21:56:00,
2013-04-14 17:02:00,43.5,35.8,29.75,ENE,67,2.0,6.0,74,0.00,,,0.00,WUHU21023XXSP,2013-04-14 22:02:00,
2013-04-14 17:08:00,43.5,36.1,29.74,NE,45,1.0,6.0,75,0.00,,,0.00,WUHU21023XXSP,2013-04-14 22:08:00,
2013-04-14 17:15:00,43.3,36.2,29.74,ENE,67,0.0,8.0,76,0.00,,,0.00,WUHU21023XXSP,2013-04-14 22:15:00,
2013-04-14 17:21:00,43.3,36.2,29.74,NE,45,7.0,8.0,76,0.00,,,0.00,WUHU21023XXSP,2013-04-14 22:21:00,
2013-04-14 17:28:00,43.5,36.4,29.74,NE,45,0.0,7.0,76,0.00,,,0.00,WUHU21023XXSP,2013-04-14 22:28:00,
2013-04-14 17:34:00,43.3,36.6,29.73,ESE,112,4.0,7.0,77,0.00,,,0.00,WUHU21023XXSP,2013-04-14 22:34:00,
2013-04-14 17:40:00,43.3,36.6,29.73,ENE,67,7.0,7.0,77,0.00,,,0.00,WUHU21023XXSP,2013-04-14 22:40:00,
2013-04-14 17:47:00,43.2,36.4,29.73,NE,45,6.0,7.0,78,0.00,,,0.00,WUHU21023XXSP,2013-04-14 22:47:00,
2013-04-14 17:53:00,43.2,36.7,29.73,ENE,67,6.0,14.0,78,0.00,,,0.00,WUHU21023XXSP,2013-04-14 22:53:00,
2013-04-14 18:00:00,43.3,36.9,29.72,East,90,7.0,14.0,78,0.00,,,0.00,WUHU21023XXSP,2013-04-14 23:00:00,
2013-04-14 18:06:00,43.3,36.9,29.72,NE,45,4.0,9.0,78,0.00,,,0.00,WUHU21023XXSP,2013-04-14 23:06:00,
2013-04-14 18:13:00,43.3,36.9,29.72,NE,45,5.0,11.0,78,0.00,,,0.00,WUHU21023XXSP,2013-04-14 23:13:00,
2013-04-14 18:19:00,43.3,36.9,29.72,East,90,6.0,8.0,78,0.00,,,0.00,WUHU21023XXSP,2013-04-14 23:19:00,
2013-04-14 18:25:00,43.3,36.9,29.71,NE,45,6.0,12.0,78,0.00,,,0.00,WUHU21023XXSP,2013-04-14 23:25:00,
2013-04-14 18:32:00,43.3,36.9,29.71,NE,45,9.0,12.0,78,0.00,,,0.00,WUHU21023XXSP,2013-04-14 23:32:00,
2013-04-14 18:38:00,43.2,36.7,29.71,ENE,67,0.0,12.0,78,0.00,,,0.00,WUHU21023XXSP,2013-04-14 23:38:00,
2013-04-14 18:45:00,43.3,36.9,29.71,ENE,67,8.0,12.0,78,0.00,,,0.00,WUHU21023XXSP,2013-04-14 23:45:00,
2013-04-14 18:51:00,43.3,36.9,29.71,ENE,67,7.0,10.0,78,0.00,,,0.00,WUHU21023XXSP,2013-04-14 23:51:00,
2013-04-14 18:58:00,43.2,37.1,29.70,NE,45,7.0,10.0,79,0.00,,,0.00,WUHU21023XXSP,2013-04-14 23:58:00,
2013-04-14 19:04:00,43.2,37.1,29.70,ENE,67,3.0,9.0,79,0.00,,,0.00,WUHU21023XXSP,2013-04-15 00:04:00,
2013-04-14 19:10:00,43.3,37.2,29.69,NE,45,0.0,11.0,79,0.00,,,0.00,WUHU21023XXSP,2013-04-15 00:10:00,
2013-04-14 19:17:00,43.2,37.1,29.69,NNE,22,3.0,7.0,79,0.00,,,0.00,WUHU21023XXSP,2013-04-15 00:17:00,
2013-04-14 19:23:00,43.2,37.4,29.69,ENE,67,5.0,5.0,80,0.00,,,0.00,WUHU21023XXSP,2013-04-15 00:23:00,
2013-04-14 19:30:00,43.3,37.6,29.68,ENE,67,0.0,11.0,80,0.00,,,0.00,WUHU21023XXSP,2013-04-15 00:30:00,
2013-04-14 19:36:00,43.3,37.6,29.68,ENE,67,0.0,11.0,80,0.00,,,0.00,WUHU21023XXSP,2013-04-15 00:36:00,
2013-04-14 19:42:00,43.5,37.8,29.68,East,90,0.0,9.0,80,0.00,,,0.00,WUHU21023XXSP,2013-04-15 00:42:00,
2013-04-14 19:49:00,43.5,37.8,29.68,NE,45,8.0,8.0,80,0.00,,,0.00,WUHU21023XXSP,2013-04-15 00:49:00,
2013-04-14 19:55:00,43.5,37.8,29.68,NE,45,0.0,8.0,80,0.00,,,0.00,WUHU21023XXSP,2013-04-15 00:55:00,
2013-04-14 20:02:00,43.5,37.8,29.68,ENE,67,0.0,6.0,80,0.00,,,0.00,WUHU21023XXSP,2013-04-15 01:02:00,
2013-04-14 20:08:00,43.5,37.8,29.68,NE,45,0.0,0.0,80,0.00,,,0.00,WUHU21023XXSP,2013-04-15 01:08:00,
2013-04-14 20:15:00,43.5,38.1,29.68,ENE,67,5.0,7.0,81,0.00,,,0.00,WUHU21023XXSP,2013-04-15 01:15:00,
2013-04-14 20:21:00,43.5,38.1,29.68,NE,45,2.0,5.0,81,0.00,,,0.00,WUHU21023XXSP,2013-04-15 01:21:00,
2013-04-14 20:27:00,43.7,38.2,29.68,SE,135,3.0,4.0,81,0.00,,,0.00,WUHU21023XXSP,2013-04-15 01:27:00,
2013-04-14 20:34:00,43.7,38.2,29.68,ENE,67,0.0,5.0,81,0.00,,,0.00,WUHU21023XXSP,2013-04-15 01:34:00,
2013-04-14 20:40:00,43.9,38.7,29.68,ENE,67,6.0,9.0,82,0.00,,,0.00,WUHU21023XXSP,2013-04-15 01:40:00,
2013-04-14 20:47:00,43.9,38.7,29.68,ENE,67,0.0,6.0,82,0.00,,,0.00,WUHU21023XXSP,2013-04-15 01:47:00,
2013-04-14 20:53:00,44.1,38.9,29.68,ENE,67,0.0,8.0,82,0.00,,,0.00,WUHU21023XXSP,2013-04-15 01:53:00,
2013-04-14 21:00:00,44.2,39.1,29.67,ENE,67,0.0,8.0,82,0.00,,,0.00,WUHU21023XXSP,2013-04-15 02:00:00,
2013-04-14 21:06:00,44.2,39.1,29.68,ENE,67,0.0,0.0,82,0.00,,,0.00,WUHU21023XXSP,2013-04-15 02:06:00,
2013-04-14 21:12:00,44.2,39.1,29.68,ENE,67,0.0,0.0,82,0.00,,,0.00,WUHU21023XXSP,2013-04-15 02:12:00,
2013-04-14 21:19:00,44.2,39.1,29.68,ENE,67,0.0,0.0,82,0.00,,,0.00,WUHU21023XXSP,2013-04-15 02:19:00,
2013-04-14 21:25:00,44.1,38.9,29.68,ENE,67,0.0,0.0,82,0.00,,,0.00,WUHU21023XXSP,2013-04-15 02:25:00,
2013-04-14 21:32:00,43.9,38.7,29.68,ENE,67,0.0,0.0,82,0.00,,,0.00,WUHU21023XXSP,2013-04-15 02:32:00,
2013-04-14 21:38:00,43.9,38.7,29.67,ENE,67,0.0,0.0,82,0.00,,,0.00,WUHU21023XXSP,2013-04-15 02:38:00,
2013-04-14 21:45:00,43.7,38.6,29.67,ENE,67,0.0,0.0,82,0.00,,,0.00,WUHU21023XXSP,2013-04-15 02:45:00,
2013-04-14 21:52:00,43.9,38.7,29.67,ENE,67,0.0,0.0,82,0.00,,,0.00,WUHU21023XXSP,2013-04-15 02:52:00,
2013-04-14 21:57:00,43.9,38.7,29.67,ESE,112,0.0,0.0,82,0.00,,,0.00,WUHU21023XXSP,2013-04-15 02:57:00,
2013-04-14 22:04:00,44.2,39.4,29.67,SE,135,0.0,3.0,83,0.00,,,0.00,WUHU21023XXSP,2013-04-15 03:04:00,
2013-04-14 22:10:00,44.8,40.2,29.67,SE,135,2.0,2.0,84,0.00,,,0.00,WUHU21023XXSP,2013-04-15 03:10:00,
2013-04-14 22:17:00,45.7,41.5,29.66,SE,135,0.0,8.0,85,0.00,,,0.00,WUHU21023XXSP,2013-04-15 03:17:00,
2013-04-14 22:23:00,46.8,42.5,29.65,SSE,157,0.0,8.0,85,0.00,,,0.00,WUHU21023XXSP,2013-04-15 03:23:00,
2013-04-14 22:30:00,47.8,43.5,29.65,SSE,157,7.0,7.0,85,0.00,,,0.00,WUHU21023XXSP,2013-04-15 03:30:00,
2013-04-14 22:36:00,48.7,44.4,29.65,SE,135,4.0,7.0,85,0.00,,,0.00,WUHU21023XXSP,2013-04-15 03:36:00,
2013-04-14 22:42:00,49.3,44.9,29.64,SE,135,0.0,5.0,85,0.00,,,0.00,WUHU21023XXSP,2013-04-15 03:42:00,
2013-04-14 22:49:00,49.8,45.1,29.64,SE,135,0.0,1.0,84,0.00,,,0.00,WUHU21023XXSP,2013-04-15 03:49:00,
2013-04-14 22:55:00,50.4,45.3,29.64,SE,135,0.0,0.0,83,0.00,,,0.00,WUHU21023XXSP,2013-04-15 03:55:00,
2013-04-14 23:00:00,50.5,45.5,29.64,SE,135,0.0,0.0,83,0.00,,,0.00,WUHU21023XXSP,2013-04-15 04:00:00,
2013-04-14 23:04:00,50.5,45.2,29.64,SE,135,0.0,0.0,82,0.00,,,0.00,WUHU21023XXSP,2013-04-15 04:04:00,
2013-04-14 23:06:00,50.7,45.4,29.64,ESE,112,8.0,8.0,82,0.00,,,0.00,WUHU21023XXSP,2013-04-15 04:06:00,
2013-04-14 23:12:00,50.9,45.6,29.63,SE,135,0.0,8.0,82,0.00,,,0.00,WUHU21023XXSP,2013-04-15 04:12:00,
2013-04-14 23:19:00,51.1,45.4,29.63,SE,135,0.0,6.0,81,0.00,,,0.00,WUHU21023XXSP,2013-04-15 04:19:00,
2013-04-14 23:25:00,51.4,45.8,29.63,SE,135,0.0,3.0,81,0.00,,,0.00,WUHU21023XXSP,2013-04-15 04:25:00,
2013-04-14 23:32:00,51.4,45.8,29.62,SSE,157,6.0,6.0,81,0.00,,,0.00,WUHU21023XXSP,2013-04-15 04:32:00,
2013-04-14 23:38:00,51.6,45.7,29.63,SE,135,2.0,6.0,80,0.00,,,0.00,WUHU21023XXSP,2013-04-15 04:38:00,
2013-04-14 23:45:00,51.8,45.9,29.62,SSE,157,6.0,6.0,80,0.00,,,0.00,WUHU21023XXSP,2013-04-15 04:45:00,
2013-04-14 23:51:00,52.2,45.9,29.62,SE,135,0.0,6.0,79,0.00,,,0.00,WUHU21023XXSP,2013-04-15 04:51:00,
2013-04-14 23:57:00,52.3,46.0,29.61,ESE,112,7.0,9.0,79,0.00,,,0.00,WUHU21023XXSP,2013-04-15 04:57:00,